This is the latest recevied weather packets stored in our database for station/object WX2NJ. If no packets are shown the sender has not sent any weather packets the latest 1 day(s).
| Time | Temp. | Humidity | Pressure | Rain* | Wind** | Luminosity | Snow |
|---|---|---|---|---|---|---|---|
| 1778093692 | 19.44° C | 77% | 1011.9 hPa | 0 mm | - | 119 W/m² | - |
| 1778093086 | 19.44° C | 73% | 1011.6 hPa | 0 mm | - | 49 W/m² | - |
| 1778092783 | 20° C | 72% | 1011.7 hPa | 0 mm | - | 46 W/m² | - |
| 1778091570 | 20.56° C | 69% | 1011.7 hPa | 0 mm | - | 103 W/m² | - |
| 1778091268 | 20.56° C | 69% | 1011.5 hPa | 0 mm | - | 113 W/m² | - |
| 1778090358 | 21.11° C | 69% | 1011.9 hPa | 0 mm | - | 152 W/m² | - |
| 1778089449 | 21.11° C | 69% | 1012.3 hPa | 0 mm | - | 157 W/m² | - |
| 1778089146 | 21.11° C | 69% | 1012.3 hPa | 0 mm | - | 106 W/m² | - |
| 1778087631 | 20.56° C | 72% | 1012.4 hPa | 0 mm | - | 301 W/m² | - |
| 1778086718 | 20° C | 73% | 1012.6 hPa | 0 mm | - | 75 W/m² | - |
| 1778085506 | 20° C | 73% | 1013.4 hPa | 0 mm | - | 127 W/m² | - |
| 1778084896 | 20° C | 72% | 1013.5 hPa | 0 mm | - | 177 W/m² | - |
| 1778079833 | 20° C | 70% | 1013.9 hPa | 0 mm | - | 65 W/m² | - |
| 1778079530 | 20° C | 70% | 1013.9 hPa | 0 mm | - | 92 W/m² | - |
| 1778079226 | 20° C | 70% | 1014.1 hPa | 0 mm | - | 120 W/m² | - |
| 1778078924 | 20.56° C | 69% | 1013.9 hPa | 0 mm | - | 120 W/m² | - |
| 1778078620 | 20.56° C | 69% | 1014 hPa | 0 mm | - | 152 W/m² | - |
| 1778077714 | 21.11° C | 68% | 1013.9 hPa | 0 mm | - | 235 W/m² | - |
| 1778076505 | 21.11° C | 66% | 1013.8 hPa | 0 mm | - | 142 W/m² | - |
| 1778075595 | 21.67° C | 64% | 1014 hPa | 0 mm | - | 192 W/m² | - |
| 1778074685 | 21.67° C | 65% | 1014 hPa | 0 mm | - | 214 W/m² | - |
| 1778074382 | 22.22° C | 63% | 1014.1 hPa | 0 mm | - | 182 W/m² | - |
| 1778073776 | 22.22° C | 64% | 1014.3 hPa | 0 mm | - | 270 W/m² | - |
| 1778071959 | 20.56° C | 67% | 1014.3 hPa | 0 mm | - | 385 W/m² | - |
| 1778071052 | 19.44° C | 70% | 1014.2 hPa | 0 mm | - | 223 W/m² | - |
* Rain latest hour (hover to see other rain measurements)
** Current wind speed in m/s (hover to see current wind gust speed)